Hauptseite
METAR-TAF:

METAR-TAF

Flughäfen :

Prague, Tschechien

Breite: 50-12-59N, Länge: 014-23-42E, Höhe: 280 m

Beobachtung

Neuester Wetterbericht von vor 10 Stunden und 30 Minuten, um 15:00 UTC
Wind 5 kt aus Ost/Nordost, variierte zwischen Nord und Ost/Südost
Temperatur 10°C
Luftfeuchtigkeit 82%
Luftdruck 1014 hPa
Sichtweite: 5000 m
feuchter Dunst

METAR: LKVO 041500Z 07005KT 010V110 5000 BR NSC 10/07 Q1014

Zeit: 02:30 (01:30 UTC)


TAF: fehlend

Wetterbeobachtungen und Prognosen von mehr als 4000 Flughäfen (METAR und TAF Bericht).

Die verfügbaren Stationen werden durch gelbe und rote Markierungen auf der Karte dargestellt.

Führen Sie die Maus auf sie, um den Namen der Station zu sehen.

Darauf klicken, um die Beobachtung von Wetterbeobachtungen und Prognosen zu sehen.

Um die Karte zu ändern : klicken Sie auf den grünen Tasten mit einem schwarzen Kreuz Zum Vergrößern, auf den grünen Button mit einem Gedankenstrich zu verkleinern, oder auf die grünen Pfeile für benachbarte Karten.


METAR-TAF: